Longisland, North Carolina
Current Conditions -  °F | °C
As of 11:35 PM on Saturday 25 Oct 2014 (Local Time) from KSVH Reporting Station
Clear Clear  
Wind Chill: 48°   Ceiling: Unl
Heat Index: 48°   Visibility: 10mi
Dew Point: 44°   Wind: 3mph
Humidity: 85%   Direction: 220°SW
Pressure: 29.92"   Gusts: NA
Location:  35.6752°N, 81.0375°W
Report Text: KSVH 260335Z AUTO 22003KT 10SM CLR 09/07 A2992 RMK AO2 T00890065
Loading
Personal Weather Stations






























Interactive Weather Map
Tropical Storm Tracking
New forecast layout! Learn more

10-Day Weather Forecast

Advertisements
Track Severe Weather on mobile